Hollybush, Kentucky
Current Conditions -  °F | °C
As of 5:15 AM on Saturday 22 Nov 2014 (Local Time) from KPBX Reporting Station
Clear Clear  
Wind Chill: 26°   Ceiling: Unl
Heat Index: 32°   Visibility: 10mi
Dew Point: 14°   Wind: 6mph
Humidity: 47%   Direction: 160°SSE
Pressure: 30.37"   Gusts: NA
Location:  37.3567°N, 82.8301°W
Report Text: KPBX 221015Z AUTO 16005KT 10SM CLR 00/M10 A3037 RMK AO2 T10011101
Loading
Personal Weather Stations






























Interactive Weather Map New forecast layout! Learn more

10-Day Weather Forecast

Advertisements
Track Severe Weather on mobile